createdAt,value
2023-05-05T00:00:20.820Z,7.00
2023-05-05T00:05:24.470Z,7.37
2023-05-05T00:10:27.004Z,7.07
2023-05-05T00:15:30.869Z,6.60
2023-05-05T00:20:33.339Z,6.40
2023-05-05T00:25:35.879Z,7.03
2023-05-05T00:30:40.850Z,5.93
2023-05-05T00:35:43.366Z,4.63
2023-05-05T00:40:45.913Z,6.87
2023-05-05T00:45:59.625Z,6.82
2023-05-05T00:51:02.339Z,7.10
2023-05-05T00:56:05.611Z,7.27
2023-05-05T01:01:10.212Z,7.85
2023-05-05T01:06:31.693Z,7.60
2023-05-05T01:11:44.773Z,6.97
2023-05-05T01:16:57.993Z,7.32
2023-05-05T01:22:04.402Z,6.90
2023-05-05T01:27:27.248Z,6.97
2023-05-05T01:32:36.509Z,6.37
2023-05-05T01:37:46.900Z,6.53
2023-05-05T01:42:51.707Z,6.18
2023-05-05T01:47:58.053Z,5.77
2023-05-05T01:53:02.395Z,4.97
2023-05-05T01:58:08.121Z,6.43
2023-05-05T02:03:15.448Z,6.30
2023-05-05T02:08:18.373Z,6.22
2023-05-05T02:13:22.653Z,4.85
2023-05-05T02:18:28.386Z,6.63
2023-05-05T02:23:32.254Z,5.57
2023-05-05T02:28:40.798Z,5.68
2023-05-05T02:33:47.938Z,5.30
2023-05-05T02:38:56.295Z,5.47
2023-05-05T02:44:01.929Z,5.20
2023-05-05T02:49:05.839Z,4.30
2023-05-05T02:54:08.473Z,5.07
2023-05-05T02:59:16.480Z,4.43
2023-05-05T03:04:27.315Z,4.97
2023-05-05T03:09:37.697Z,4.50
2023-05-05T03:14:42.821Z,4.70
2023-05-05T03:19:47.901Z,4.93
2023-05-05T03:24:53.391Z,4.97
2023-05-05T03:29:56.418Z,4.90
2023-05-05T03:35:00.220Z,4.82
2023-05-05T03:40:02.706Z,4.15
2023-05-05T03:45:05.823Z,4.00
2023-05-05T03:50:10.301Z,3.35
2023-05-05T03:55:12.851Z,3.75
2023-05-05T04:00:16.384Z,3.50
2023-05-05T04:05:22.449Z,3.03
2023-05-05T04:10:25.103Z,2.92
2023-05-05T04:15:27.615Z,2.65
2023-05-05T04:20:31.463Z,2.83
2023-05-05T04:25:33.958Z,3.00
2023-05-05T04:30:36.458Z,2.55
2023-05-05T04:35:40.287Z,2.70
2023-05-05T04:40:42.820Z,2.83
2023-05-05T04:45:53.497Z,2.75
2023-05-05T04:50:57.308Z,2.17
2023-05-05T04:56:01.100Z,2.00
2023-05-05T05:01:03.593Z,1.75
2023-05-05T05:06:07.833Z,2.40
2023-05-05T05:11:10.456Z,2.30
2023-05-05T05:16:13.053Z,2.40
2023-05-05T05:21:16.980Z,2.28
2023-05-05T05:26:19.518Z,2.10
2023-05-05T05:31:22.011Z,2.20
2023-05-05T05:36:26.243Z,2.50
2023-05-05T05:41:28.714Z,2.20
2023-05-05T05:46:31.254Z,2.20
2023-05-05T05:51:35.081Z,2.00
2023-05-05T05:56:37.567Z,2.15
2023-05-05T06:01:40.432Z,2.30
2023-05-05T06:06:44.264Z,2.38
2023-05-05T06:11:46.739Z,2.30
2023-05-05T06:16:49.297Z,2.00
2023-05-05T06:21:53.133Z,1.73
2023-05-05T06:26:55.618Z,2.47
2023-05-05T06:31:58.087Z,2.27
2023-05-05T06:37:01.914Z,2.03
2023-05-05T06:42:04.786Z,2.08
2023-05-05T06:47:07.730Z,2.40
2023-05-05T06:52:12.544Z,2.10
2023-05-05T06:57:15.062Z,2.50
2023-05-05T07:02:17.555Z,2.22
2023-05-05T07:07:21.589Z,1.80
2023-05-05T07:12:24.231Z,2.10
2023-05-05T07:17:26.768Z,2.65
2023-05-05T07:22:30.618Z,2.60
2023-05-05T07:27:33.650Z,2.60
2023-05-05T07:32:36.338Z,2.30
2023-05-05T07:37:40.174Z,2.13
2023-05-05T07:42:42.710Z,2.40
2023-05-05T07:47:45.348Z,2.03
2023-05-05T07:52:54.016Z,2.28
2023-05-05T07:58:03.647Z,2.50
2023-05-05T08:03:07.780Z,2.15
2023-05-05T08:08:13.711Z,2.55
2023-05-05T08:13:16.275Z,2.30
2023-05-05T08:18:18.926Z,1.90
2023-05-05T08:23:22.746Z,2.30
2023-05-05T08:28:25.277Z,2.30
2023-05-05T08:33:27.743Z,1.90
2023-05-05T08:38:31.556Z,2.22
2023-05-05T08:43:35.807Z,2.40
2023-05-05T08:48:41.344Z,2.30
2023-05-05T08:53:52.278Z,2.20
2023-05-05T08:58:57.276Z,2.20
2023-05-05T09:04:00.489Z,2.20
2023-05-05T09:09:04.843Z,2.00
2023-05-05T09:14:07.389Z,2.22
2023-05-05T09:19:09.877Z,1.83
2023-05-05T09:24:15.521Z,2.03
2023-05-05T09:29:21.762Z,2.60
2023-05-05T09:34:24.471Z,1.80
2023-05-05T09:39:28.420Z,2.10
2023-05-05T09:44:35.114Z,2.10
2023-05-05T09:49:39.488Z,1.75
2023-05-05T09:54:44.248Z,2.40
2023-05-05T09:59:56.410Z,1.87
2023-05-05T10:05:12.722Z,2.20
2023-05-05T10:10:19.272Z,1.75
2023-05-05T10:15:22.837Z,2.37
2023-05-05T10:20:26.752Z,1.80
2023-05-05T10:25:34.064Z,2.03
2023-05-05T10:30:44.135Z,2.20
2023-05-05T10:35:51.566Z,2.22
2023-05-05T10:40:58.596Z,3.28
2023-05-05T10:46:01.350Z,2.10
2023-05-05T10:51:35.223Z,2.20
2023-05-05T10:56:43.745Z,2.15
2023-05-05T11:01:46.356Z,2.20
2023-05-05T11:07:23.101Z,2.20
2023-05-05T11:12:26.911Z,2.60
2023-05-05T11:17:46.245Z,2.03
2023-05-05T11:23:23.077Z,2.10
2023-05-05T11:28:29.944Z,1.95
2023-05-05T11:33:33.665Z,1.95
2023-05-05T11:38:49.273Z,2.50
2023-05-05T11:44:09.630Z,2.40
2023-05-05T11:49:12.170Z,2.10
2023-05-05T11:54:20.726Z,2.20
2023-05-05T11:59:24.588Z,1.97
2023-05-05T12:04:27.306Z,2.45
2023-05-05T12:09:29.891Z,2.15
2023-05-05T12:14:34.380Z,2.10
2023-05-05T12:19:36.894Z,2.47
2023-05-05T12:24:39.496Z,2.05
2023-05-05T12:29:43.331Z,2.10
2023-05-05T12:34:46.103Z,3.30
2023-05-05T12:39:48.840Z,2.10
2023-05-05T12:44:52.828Z,2.10
2023-05-05T12:49:55.348Z,2.40
2023-05-05T12:54:59.452Z,2.55
2023-05-05T13:00:13.810Z,3.17
2023-05-05T13:05:16.293Z,2.33
2023-05-05T13:10:18.842Z,2.50
2023-05-05T13:15:22.685Z,2.70
2023-05-05T13:20:25.167Z,2.60
2023-05-05T13:25:27.913Z,2.27
2023-05-05T13:30:31.736Z,3.10
2023-05-05T13:35:34.231Z,2.35
2023-05-05T13:40:36.841Z,1.67
2023-05-05T13:45:41.901Z,2.10
2023-05-05T13:50:44.605Z,2.20
2023-05-05T13:55:47.121Z,2.70
2023-05-05T14:00:51.515Z,2.33
2023-05-05T14:05:54.031Z,2.45
2023-05-05T14:10:57.839Z,2.17
2023-05-05T14:16:01.766Z,2.33
2023-05-05T14:21:04.457Z,2.45
2023-05-05T14:26:08.762Z,2.30
2023-05-05T14:31:12.678Z,2.03
2023-05-05T14:36:15.178Z,2.40
2023-05-05T14:41:17.690Z,2.50
2023-05-05T14:46:21.634Z,2.57
2023-05-05T14:51:24.483Z,2.40
2023-05-05T14:56:28.118Z,1.92
2023-05-05T15:01:32.111Z,2.03
2023-05-05T15:06:34.640Z,2.33
2023-05-05T15:11:37.813Z,2.05
2023-05-05T15:16:41.690Z,2.20
2023-05-05T15:21:44.220Z,1.97
2023-05-05T15:26:46.698Z,2.92
2023-05-05T15:31:50.639Z,2.03
2023-05-05T15:36:53.164Z,2.03
2023-05-05T15:41:55.871Z,2.20
2023-05-05T15:46:59.785Z,2.30
2023-05-05T15:52:02.341Z,2.17
2023-05-05T15:57:04.947Z,1.87
2023-05-05T16:02:08.759Z,1.95
2023-05-05T16:07:11.289Z,1.98
2023-05-05T16:12:16.729Z,1.90
2023-05-05T16:17:22.263Z,1.92
2023-05-05T16:22:25.244Z,2.08
2023-05-05T16:27:27.751Z,1.97
2023-05-05T16:32:31.718Z,1.95
2023-05-05T16:37:34.306Z,2.20
2023-05-05T16:42:36.824Z,2.00
2023-05-05T16:47:40.921Z,2.37
2023-05-05T16:52:43.430Z,2.20
2023-05-05T16:57:47.138Z,2.33
2023-05-05T17:02:51.089Z,2.23
2023-05-05T17:07:53.595Z,1.92
2023-05-05T17:12:56.166Z,1.95
2023-05-05T17:18:00.140Z,5.13
2023-05-05T17:23:03.316Z,2.88
2023-05-05T17:28:07.319Z,2.30
2023-05-05T17:33:11.306Z,3.13
2023-05-05T17:38:13.875Z,2.13
2023-05-05T17:43:16.382Z,2.30
2023-05-05T17:48:20.277Z,2.20
2023-05-05T17:53:23.085Z,2.07
2023-05-05T17:58:25.624Z,2.30
2023-05-05T18:03:29.601Z,1.98
2023-05-05T18:08:32.153Z,2.20
2023-05-05T18:13:34.649Z,2.20
2023-05-05T18:18:38.566Z,2.03
2023-05-05T18:23:41.293Z,2.30
2023-05-05T18:28:43.781Z,2.03
2023-05-05T18:33:47.899Z,1.83
2023-05-05T18:38:50.901Z,2.47
2023-05-05T18:43:53.427Z,2.53
2023-05-05T18:48:57.457Z,1.98
2023-05-05T18:54:00.802Z,9.13
2023-05-05T18:59:04.613Z,3.50
2023-05-05T19:04:22.543Z,13.73
2023-05-05T19:09:29.596Z,2.28
2023-05-05T19:14:32.100Z,2.43
2023-05-05T19:19:35.978Z,2.70
2023-05-05T19:24:38.521Z,2.17
2023-05-05T19:29:41.240Z,2.15
2023-05-05T19:34:45.105Z,2.27
2023-05-05T19:39:48.583Z,2.08
2023-05-05T19:44:52.126Z,1.75
2023-05-05T19:49:55.976Z,2.20
2023-05-05T19:54:59.772Z,2.20
2023-05-05T20:00:02.329Z,2.10
2023-05-05T20:05:07.108Z,2.37
2023-05-05T20:10:10.676Z,2.10
2023-05-05T20:15:13.493Z,2.35
2023-05-05T20:20:19.962Z,2.42
2023-05-05T20:25:22.499Z,2.00
2023-05-05T20:30:25.012Z,2.10
2023-05-05T20:35:28.844Z,2.08
2023-05-05T20:40:31.554Z,1.93
2023-05-05T20:45:34.605Z,1.90
2023-05-05T20:50:39.319Z,1.95
2023-05-05T20:55:42.038Z,2.40
2023-05-05T21:00:44.564Z,2.00
2023-05-05T21:05:48.427Z,1.70
2023-05-05T21:10:50.953Z,2.10
2023-05-05T21:15:53.439Z,1.77
2023-05-05T21:20:57.243Z,2.08
2023-05-05T21:25:59.932Z,1.95
2023-05-05T21:31:20.489Z,2.10
2023-05-05T21:36:25.422Z,2.10
2023-05-05T21:41:27.933Z,2.15
2023-05-05T21:46:30.434Z,1.90
2023-05-05T21:51:34.890Z,2.20
2023-05-05T21:56:38.081Z,2.05
2023-05-05T22:01:40.693Z,2.40
2023-05-05T22:06:44.611Z,2.13
2023-05-05T22:11:47.438Z,2.03
2023-05-05T22:16:49.983Z,2.10
2023-05-05T22:21:54.157Z,2.60
2023-05-05T22:26:57.322Z,2.10
2023-05-05T22:31:59.825Z,2.20
2023-05-05T22:37:03.646Z,2.67
2023-05-05T22:42:06.501Z,2.43
2023-05-05T22:47:09.124Z,2.30
2023-05-05T22:52:13.620Z,2.50
2023-05-05T22:57:16.249Z,2.13
2023-05-05T23:02:18.736Z,1.98
2023-05-05T23:07:22.631Z,2.30
2023-05-05T23:12:25.094Z,2.47
2023-05-05T23:17:27.599Z,1.95
2023-05-05T23:22:31.416Z,2.10
2023-05-05T23:27:33.973Z,2.27
2023-05-05T23:32:36.486Z,2.30
2023-05-05T23:37:40.302Z,2.60
2023-05-05T23:42:42.769Z,2.60
2023-05-05T23:47:45.258Z,2.23
2023-05-05T23:52:49.083Z,2.88
2023-05-05T23:57:53.034Z,2.28
